| time (UTC) | temp F | wind direction | speed knots | gust knots | rain 1hr in | rain 24hr in | rain mn in | humidity % | barometer mb |
| 20260503203909 | 61 | 207 | 4.3 | 15.6 | 0.00 | 0.00 | 0.00 | 49 | 1011.6 |
| 20260503203259 | 61 | 244 | 5.2 | 15.6 | 0.00 | 0.00 | 0.00 | 48 | 1011.9 |
| 20260503202911 | 61 | 222 | 2.6 | 15.6 | 0.00 | 0.00 | 0.00 | 48 | 1012.0 |
| 20260503202257 | 61 | 208 | 7.0 | 15.6 | 0.00 | 0.00 | 0.00 | 47 | 1012.0 |
| 20260503201910 | 62 | 199 | 7.0 | 15.6 | 0.00 | 0.00 | 0.00 | 46 | 1012.0 |
| 20260503201257 | 62 | 206 | 5.2 | 15.6 | 0.00 | 0.00 | 0.00 | 46 | 1012.2 |
| 20260503200909 | 62 | 216 | 4.3 | 15.6 | 0.00 | 0.00 | 0.00 | 47 | 1012.2 |
| 20260503200258 | 62 | 212 | 7.0 | 15.6 | 0.00 | 0.00 | 0.00 | 46 | 1012.5 |
| 20260503195257 | 63 | 200 | 5.2 | 15.6 | 0.00 | 0.00 | 0.00 | 46 | 1012.6 |
| 20260503194909 | 62 | 192 | 6.1 | 15.6 | 0.00 | 0.00 | 0.00 | 46 | 1012.7 |
| 20260503194259 | 62 | 216 | 5.2 | 15.6 | 0.00 | 0.00 | 0.00 | 47 | 1012.9 |
| 20260503193910 | 62 | 194 | 5.2 | 15.6 | 0.00 | 0.00 | 0.00 | 46 | 1012.9 |
| 20260503193258 | 62 | 276 | 1.7 | 15.6 | 0.00 | 0.00 | 0.00 | 46 | 1013.0 |
| 20260503192913 | 62 | 232 | 2.6 | 15.6 | 0.00 | 0.00 | 0.00 | 50 | 1013.1 |
| 20260503192258 | 60 | 223 | 1.7 | 15.6 | 0.00 | 0.00 | 0.00 | 53 | 1013.3 |
| 20260503191909 | 60 | 211 | 1.7 | 15.6 | 0.00 | 0.00 | 0.00 | 53 | 1013.4 |
| 20260503191258 | 59 | 216 | 2.6 | 15.6 | 0.00 | 0.00 | 0.00 | 56 | 1013.9 |
| 20260503190911 | 58 | 206 | 4.3 | 15.6 | 0.00 | 0.00 | 0.00 | 58 | 1013.9 |
| 20260503190258 | 58 | 203 | 2.6 | 15.6 | 0.00 | 0.00 | 0.00 | 55 | 1014.0 |
| 20260503185909 | 58 | 225 | 2.6 | 15.6 | 0.00 | 0.00 | 0.00 | 55 | 1014.2 |
| 20260503185257 | 58 | 201 | 2.6 | 15.6 | 0.00 | 0.00 | 0.00 | 50 | 1014.2 |
| 20260503184910 | 58 | 271 | 1.7 | 15.6 | 0.00 | 0.00 | 0.00 | 52 | 1014.2 |
| 20260503184257 | 58 | 214 | 2.6 | 15.6 | 0.00 | 0.00 | 0.00 | 49 | 1014.3 |
| 20260503183910 | 58 | 210 | 2.6 | 15.6 | 0.00 | 0.00 | 0.00 | 50 | 1014.5 |
| 20260503183257 | 58 | 224 | 2.6 | 15.6 | 0.00 | 0.00 | 0.00 | 53 | 1014.8 |
| 20260503182258 | 58 | 194 | 0.9 | 15.6 | 0.00 | 0.00 | 0.00 | 55 | 1014.8 |
| 20260503181909 | 58 | 216 | 2.6 | 15.6 | 0.00 | 0.00 | 0.00 | 54 | 1014.8 |
| 20260503181258 | 57 | 184 | 0.9 | 15.6 | 0.00 | 0.00 | 0.00 | 55 | 1014.8 |
| 20260503180910 | 57 | 192 | 1.7 | 15.6 | 0.00 | 0.00 | 0.00 | 55 | 1014.8 |
| 20260503180257 | 57 | 235 | 0.9 | 15.6 | 0.00 | 0.00 | 0.00 | 56 | 1014.8 |
| 20260503175910 | 56 | 212 | 0.9 | 15.6 | 0.00 | 0.00 | 0.00 | 60 | 1014.7 |
| 20260503175257 | 56 | 182 | 0.9 | 15.6 | 0.00 | 0.00 | 0.00 | 59 | 1014.9 |
| 20260503174909 | 56 | 157 | 0.9 | 15.6 | 0.00 | 0.00 | 0.00 | 59 | 1015.0 |
| 20260503174257 | 55 | 211 | 1.7 | 15.6 | 0.00 | 0.00 | 0.00 | 61 | 1015.3 |
| 20260503173910 | 55 | 213 | 2.6 | 15.6 | 0.00 | 0.00 | 0.00 | 61 | 1015.5 |
| 20260503173258 | 54 | 238 | 0.9 | 15.6 | 0.00 | 0.00 | 0.00 | 61 | 1015.7 |
| 20260503172910 | 54 | 180 | 1.7 | 15.6 | 0.00 | 0.00 | 0.00 | 59 | 1015.7 |
| 20260503172300 | 54 | 227 | 1.7 | 15.6 | 0.00 | 0.00 | 0.00 | 59 | 1015.9 |
| 20260503171911 | 55 | 260 | 1.7 | 15.6 | 0.00 | 0.00 | 0.00 | 60 | 1015.9 |
| 20260503171257 | 56 | 324 | 1.7 | 15.6 | 0.00 | 0.00 | 0.00 | 56 | 1016.4 |
| 20260503170912 | 56 | 287 | 1.7 | 15.6 | 0.00 | 0.00 | 0.00 | 55 | 1016.4 |
| 20260503170302 | 57 | 322 | 2.6 | 15.6 | 0.00 | 0.00 | 0.00 | 50 | 1016.4 |
| 20260503150910 | 57 | 204 | 5.2 | 14.8 | 0.00 | 0.00 | 0.00 | 53 | 1017.2 |
| 20260503150258 | 57 | 211 | 2.6 | 14.8 | 0.00 | 0.00 | 0.00 | 52 | 1017.2 |
| 20260503140257 | 54 | 207 | 2.6 | 13.0 | 0.00 | 0.00 | 0.00 | 54 | 1017.6 |
| 20260503131256 | 51 | 216 | 1.7 | 7.8 | 0.00 | 0.00 | 0.00 | 55 | 1017.8 |
| 20260503130910 | 51 | 243 | 2.6 | 7.8 | 0.00 | 0.00 | 0.00 | 55 | 1017.7 |
| 20260503130258 | 50 | 259 | 0.9 | 7.8 | 0.00 | 0.00 | 0.00 | 56 | 1017.7 |
| 20260503110257 | 43 | 221 | 0.9 | 7.0 | 0.00 | 0.01 | 0.00 | 64 | 1017.3 |
| 20260503100258 | 43 | 228 | 0.9 | 6.1 | 0.00 | 0.01 | 0.00 | 64 | 1017.2 |
| 20260503090257 | 43 | 201 | 0.9 | 6.1 | 0.00 | 0.01 | 0.00 | 64 | 1017.4 |
| 20260503081256 | 43 | 209 | 0.0 | 4.3 | 0.00 | 0.01 | 0.00 | 64 | 1017.5 |
| 20260503080256 | 43 | 209 | 1.7 | 4.3 | 0.00 | 0.01 | 0.00 | 64 | 1017.5 |
| 20260503072910 | 43 | 225 | 0.0 | 3.5 | 0.00 | 0.01 | 0.00 | 64 | 1017.6 |
| 20260503072257 | 43 | 223 | 0.9 | 3.5 | 0.00 | 0.01 | 0.00 | 64 | 1017.7 |
| 20260503071909 | 43 | 214 | 0.9 | 3.5 | 0.00 | 0.01 | 0.00 | 65 | 1017.7 |
| 20260503071257 | 42 | 212 | 1.7 | 3.5 | 0.00 | 0.01 | 0.00 | 65 | 1017.7 |
| 20260503070909 | 42 | 225 | 0.9 | 2.6 | 0.00 | 0.01 | 0.00 | 66 | 1017.7 |
| 20260503070257 | 42 | 195 | 0.0 | 2.6 | 0.00 | 0.01 | 0.00 | 65 | 1017.7 |
| 20260503060257 | 41 | 221 | 0.9 | 1.7 | 0.00 | 0.01 | 0.00 | 66 | 1018.1 |
| 20260503054910 | 41 | 236 | 0.9 | 1.7 | 0.00 | 0.01 | 0.00 | 67 | 1018.2 |
| 20260503054258 | 41 | 248 | 0.0 | 1.7 | 0.00 | 0.01 | 0.00 | 67 | 1018.2 |
| 20260503053908 | 41 | 250 | 0.0 | 1.7 | 0.00 | 0.01 | 0.00 | 67 | 1018.2 |
| 20260503053256 | 41 | 313 | 0.9 | 1.7 | 0.00 | 0.01 | 0.00 | 68 | 1018.2 |
| 20260503052909 | 41 | 323 | 0.0 | 0.9 | 0.00 | 0.01 | 0.00 | 67 | 1018.3 |
| 20260503052257 | 41 | 323 | 0.0 | 0.9 | 0.00 | 0.01 | 0.00 | 67 | 1018.2 |
| 20260503051258 | 41 | 323 | 0.0 | 0.9 | 0.00 | 0.01 | 0.00 | 67 | 1018.3 |
| 20260503050909 | 41 | 323 | 0.0 | 0.9 | 0.00 | 0.01 | 0.00 | 67 | 1018.4 |
| 20260503050257 | 41 | 323 | 0.0 | 0.9 | 0.00 | 0.01 | 0.00 | 66 | 1018.4 |
| 20260503045909 | 41 | 323 | 0.0 | 0.9 | 0.00 | 0.01 | 0.00 | 66 | 1018.5 |
| 20260503045257 | 42 | 323 | 0.0 | 0.9 | 0.00 | 0.01 | 0.00 | 66 | 1018.5 |
| 20260503044258 | 42 | 323 | 0.0 | 0.9 | 0.00 | 0.01 | 0.00 | 66 | 1018.4 |
| 20260503043908 | 42 | 323 | 0.0 | 0.9 | 0.00 | 0.01 | 0.00 | 66 | 1018.4 |
| 20260503043257 | 42 | 323 | 0.0 | 0.9 | 0.00 | 0.01 | 0.00 | 66 | 1018.4 |
| 20260503042909 | 42 | 323 | 0.0 | 0.9 | 0.00 | 0.01 | 0.00 | 66 | 1018.4 |
| 20260503042257 | 42 | 323 | 0.0 | 0.9 | 0.00 | 0.01 | 0.00 | 66 | 1018.4 |
| 20260503041910 | 42 | 327 | 0.0 | 0.9 | 0.00 | 0.01 | 0.00 | 66 | 1018.4 |
| 20260503041258 | 42 | 327 | 0.0 | 0.9 | 0.00 | 0.01 | 0.00 | 66 | 1018.4 |
| 20260503040909 | 42 | 327 | 0.0 | 0.9 | 0.00 | 0.01 | 0.00 | 66 | 1018.4 |
| 20260503040257 | 42 | 327 | 0.0 | 0.0 | 0.00 | 0.01 | 0.00 | 67 | 1018.4 |
| 20260503035257 | 42 | 327 | 0.0 | 13.0 | 0.00 | 0.01 | 0.01 | 67 | 1018.4 |
| 20260503034909 | 42 | 327 | 0.0 | 13.0 | 0.00 | 0.01 | 0.01 | 67 | 1018.4 |
| 20260503034258 | 42 | 327 | 0.0 | 13.0 | 0.00 | 0.01 | 0.01 | 68 | 1018.5 |
| 20260503033910 | 42 | 327 | 0.0 | 13.0 | 0.00 | 0.01 | 0.01 | 68 | 1018.5 |
| 20260503033257 | 42 | 327 | 0.0 | 13.0 | 0.00 | 0.01 | 0.01 | 67 | 1018.5 |
| 20260503032914 | 42 | 327 | 0.0 | 13.0 | 0.00 | 0.01 | 0.01 | 67 | 1018.5 |
| 20260503032259 | 41 | 327 | 0.0 | 13.0 | 0.00 | 0.01 | 0.01 | 68 | 1018.5 |
| 20260503031909 | 41 | 327 | 0.0 | 13.0 | 0.00 | 0.01 | 0.01 | 68 | 1018.5 |
| 20260503031258 | 41 | 327 | 0.0 | 13.0 | 0.00 | 0.01 | 0.01 | 71 | 1018.6 |
| 20260503030910 | 40 | 327 | 0.9 | 13.0 | 0.00 | 0.01 | 0.01 | 72 | 1018.5 |
| 20260503030257 | 40 | 327 | 0.0 | 13.0 | 0.00 | 0.01 | 0.01 | 71 | 1018.5 |
| 20260503025909 | 40 | 327 | 0.0 | 13.0 | 0.00 | 0.01 | 0.01 | 71 | 1018.5 |
| 20260503025259 | 41 | 327 | 0.0 | 13.0 | 0.00 | 0.01 | 0.01 | 71 | 1018.6 |
| 20260503024909 | 41 | 327 | 0.0 | 13.0 | 0.00 | 0.01 | 0.01 | 71 | 1018.6 |
| 20260503024256 | 41 | 327 | 0.0 | 13.0 | 0.00 | 0.01 | 0.01 | 71 | 1018.6 |
| 20260503023910 | 41 | 327 | 0.0 | 13.0 | 0.00 | 0.01 | 0.01 | 70 | 1018.6 |
| 20260503023257 | 41 | 327 | 0.0 | 13.0 | 0.00 | 0.01 | 0.01 | 69 | 1018.6 |
| 20260503022909 | 41 | 327 | 0.0 | 13.0 | 0.00 | 0.01 | 0.01 | 69 | 1018.6 |
| 20260503022258 | 42 | 327 | 0.0 | 13.0 | 0.00 | 0.01 | 0.01 | 68 | 1018.5 |
| 20260503021910 | 42 | 327 | 0.0 | 13.0 | 0.00 | 0.01 | 0.01 | 68 | 1018.5 |
| 20260503021257 | 42 | 327 | 0.0 | 13.0 | 0.00 | 0.01 | 0.01 | 67 | 1018.5 |
| 20260503020909 | 42 | 327 | 0.0 | 13.0 | 0.00 | 0.01 | 0.01 | 66 | 1018.5 |
| 20260503020257 | 43 | 327 | 0.0 | 13.0 | 0.00 | 0.01 | 0.01 | 66 | 1018.5 |
| 20260503015909 | 43 | 327 | 0.0 | 13.0 | 0.00 | 0.01 | 0.01 | 65 | 1018.5 |
| 20260503015257 | 43 | 327 | 0.0 | 13.0 | 0.00 | 0.01 | 0.01 | 64 | 1018.4 |
| 20260503014908 | 44 | 327 | 0.0 | 13.0 | 0.00 | 0.01 | 0.01 | 64 | 1018.3 |
| 20260503014257 | 44 | 327 | 0.0 | 13.0 | 0.00 | 0.01 | 0.01 | 63 | 1018.3 |
| 20260503013909 | 44 | 327 | 0.0 | 13.0 | 0.00 | 0.01 | 0.01 | 62 | 1018.3 |
| 20260503013256 | 45 | 327 | 0.0 | 13.0 | 0.00 | 0.01 | 0.01 | 61 | 1018.3 |
| 20260503012909 | 45 | 327 | 0.0 | 13.0 | 0.00 | 0.01 | 0.01 | 62 | 1018.3 |
| 20260503012257 | 45 | 327 | 0.0 | 13.0 | 0.00 | 0.01 | 0.01 | 62 | 1018.2 |
| 20260503011908 | 45 | 327 | 0.0 | 13.0 | 0.00 | 0.01 | 0.01 | 61 | 1018.2 |
| 20260503011257 | 46 | 327 | 0.0 | 13.0 | 0.00 | 0.01 | 0.01 | 60 | 1018.2 |
| 20260503010911 | 46 | 327 | 0.0 | 13.0 | 0.00 | 0.01 | 0.01 | 59 | 1018.2 |
| 20260503010257 | 47 | 327 | 0.0 | 13.0 | 0.00 | 0.01 | 0.01 | 58 | 1018.2 |
| 20260503005910 | 47 | 327 | 0.0 | 13.0 | 0.00 | 0.01 | 0.01 | 57 | 1018.1 |
| 20260503005259 | 48 | 327 | 0.0 | 13.0 | 0.00 | 0.01 | 0.01 | 54 | 1018.2 |
| 20260503004910 | 48 | 327 | 0.0 | 13.0 | 0.00 | 0.01 | 0.01 | 52 | 1018.2 |
| 20260503004259 | 49 | 327 | 0.0 | 13.0 | 0.00 | 0.01 | 0.01 | 49 | 1018.2 |
| 20260503003911 | 49 | 327 | 0.0 | 13.0 | 0.00 | 0.01 | 0.01 | 49 | 1018.2 |
| 20260503003257 | 50 | 327 | 0.0 | 13.0 | 0.00 | 0.01 | 0.01 | 47 | 1018.1 |
| 20260503002910 | 50 | 327 | 0.0 | 13.0 | 0.00 | 0.01 | 0.01 | 45 | 1018.1 |
| 20260503002258 | 51 | 327 | 0.0 | 13.0 | 0.00 | 0.01 | 0.01 | 42 | 1018.1 |
| 20260503001911 | 51 | 327 | 0.0 | 13.0 | 0.00 | 0.01 | 0.01 | 41 | 1018.1 |
| 20260503001300 | 51 | 327 | 0.0 | 13.0 | 0.00 | 0.01 | 0.01 | 41 | 1018.1 |
| 20260503000910 | 51 | 327 | 0.0 | 13.0 | 0.00 | 0.01 | 0.01 | 40 | 1018.1 |
| 20260503000259 | 51 | 327 | 0.0 | 13.0 | 0.00 | 0.01 | 0.01 | 41 | 1018.0 |
| 20260502235910 | 51 | 327 | 0.0 | 13.0 | 0.00 | 0.01 | 0.01 | 40 | 1017.9 |
| 20260502235257 | 51 | 327 | 0.0 | 13.0 | 0.00 | 0.01 | 0.01 | 42 | 1017.9 |
| 20260502234911 | 52 | 327 | 0.0 | 13.0 | 0.00 | 0.01 | 0.01 | 42 | 1017.9 |
| 20260502234259 | 52 | 337 | 0.0 | 13.0 | 0.00 | 0.01 | 0.01 | 42 | 1018.1 |
| 20260502233910 | 52 | 339 | 0.0 | 13.0 | 0.00 | 0.01 | 0.01 | 40 | 1018.1 |
| 20260502233300 | 52 | 309 | 0.0 | 13.0 | 0.00 | 0.01 | 0.01 | 41 | 1018.1 |
| 20260502232913 | 52 | 306 | 0.9 | 13.0 | 0.00 | 0.01 | 0.01 | 40 | 1018.1 |
| 20260502232258 | 52 | 324 | 0.0 | 13.0 | 0.00 | 0.01 | 0.01 | 39 | 1018.2 |
| 20260502231258 | 53 | 311 | 0.9 | 13.0 | 0.00 | 0.01 | 0.01 | 40 | 1018.3 |
| 20260502230909 | 53 | 342 | 0.0 | 13.0 | 0.00 | 0.01 | 0.01 | 41 | 1018.3 |
| 20260502230258 | 53 | 321 | 0.9 | 13.0 | 0.00 | 0.01 | 0.01 | 39 | 1018.2 |
| 20260502225909 | 52 | 307 | 0.0 | 13.0 | 0.00 | 0.01 | 0.01 | 38 | 1018.2 |
| 20260502225259 | 52 | 303 | 0.9 | 13.0 | 0.00 | 0.01 | 0.01 | 40 | 1018.3 |
| 20260502224911 | 52 | 299 | 0.0 | 13.0 | 0.00 | 0.01 | 0.01 | 40 | 1018.3 |
| 20260502224257 | 53 | 323 | 0.9 | 13.0 | 0.00 | 0.01 | 0.01 | 40 | 1018.3 |
| 20260502223910 | 53 | 290 | 0.9 | 13.0 | 0.00 | 0.01 | 0.01 | 39 | 1018.3 |
| 20260502223258 | 53 | 283 | 0.9 | 13.0 | 0.00 | 0.01 | 0.01 | 40 | 1018.3 |
| 20260502222910 | 53 | 289 | 0.9 | 13.0 | 0.00 | 0.01 | 0.01 | 38 | 1018.3 |
| 20260502222257 | 53 | 307 | 0.9 | 13.0 | 0.00 | 0.01 | 0.01 | 38 | 1018.3 |
| 20260502221915 | 54 | 302 | 1.7 | 13.0 | 0.00 | 0.01 | 0.01 | 34 | 1018.3 |
| 20260502221257 | 54 | 283 | 0.9 | 13.0 | 0.00 | 0.01 | 0.01 | 37 | 1018.3 |
| 20260502220910 | 54 | 260 | 1.7 | 13.0 | 0.00 | 0.01 | 0.01 | 38 | 1018.3 |
| 20260502220258 | 54 | 305 | 2.6 | 13.0 | 0.00 | 0.01 | 0.01 | 36 | 1018.3 |
| 20260502215911 | 55 | 277 | 0.9 | 13.0 | 0.00 | 0.01 | 0.01 | 37 | 1018.3 |
| 20260502215257 | 55 | 324 | 0.9 | 13.0 | 0.00 | 0.01 | 0.01 | 40 | 1018.3 |
| 20260502214258 | 55 | 50 | 2.6 | 13.0 | 0.00 | 0.01 | 0.01 | 38 | 1018.4 |
| 20260502213911 | 55 | 343 | 1.7 | 13.0 | 0.00 | 0.01 | 0.01 | 37 | 1018.3 |
| 20260502213257 | 55 | 53 | 2.6 | 13.0 | 0.00 | 0.01 | 0.01 | 38 | 1018.3 |
| 20260502212910 | 55 | 348 | 2.6 | 13.0 | 0.00 | 0.01 | 0.01 | 38 | 1018.3 |
| 20260502212257 | 55 | 7 | 4.3 | 13.0 | 0.00 | 0.01 | 0.01 | 37 | 1018.2 |
| 20260502211910 | 55 | 346 | 2.6 | 13.0 | 0.00 | 0.01 | 0.01 | 37 | 1018.2 |
| 20260502211258 | 55 | 299 | 0.9 | 13.0 | 0.00 | 0.01 | 0.01 | 39 | 1018.2 |
| 20260502210910 | 54 | 64 | 1.7 | 13.0 | 0.00 | 0.01 | 0.01 | 36 | 1018.3 |
| 20260502210258 | 55 | 1 | 1.7 | 13.0 | 0.00 | 0.01 | 0.01 | 40 | 1018.3 |
| 20260502205911 | 55 | 335 | 1.7 | 13.0 | 0.00 | 0.01 | 0.01 | 37 | 1018.3 |
| 20260502205259 | 56 | 317 | 4.3 | 13.0 | 0.00 | 0.01 | 0.01 | 37 | 1018.4 |
| 20260502204913 | 56 | 317 | 5.2 | 13.0 | 0.00 | 0.01 | 0.01 | 36 | 1018.3 |
| 20260502204257 | 55 | 198 | 1.7 | 12.2 | 0.00 | 0.01 | 0.01 | 37 | 1018.3 |